Time;durP1;ratioP1;P1;durP2;ratioP2;P2;SDS_P1;SDS_P2;PMS_P1;PMS_P2;Temp;Humidity;BMP_temperature;BMP_pressure;BME280_temperature;BME280_humidity;BME280_pressure;Samples;Min_cycle;Max_cycle;Signal;HPM_P1;HPM_P2
2022/07/25 00:02:28;;;;;;;14.40;5.00;;;;;;;24.48;51.35;98887.21;25013;1315;3053097;-63
2022/07/25 00:04:58;;;;;;;11.60;4.90;;;;;;;24.43;51.57;98886.35;25039;1319;3026880;-64
2022/07/25 00:07:28;;;;;;;8.80;4.90;;;;;;;24.39;51.59;98886.03;25079;1315;3028825;-63
2022/07/25 00:09:57;;;;;;;8.40;4.40;;;;;;;24.39;51.35;98888.96;25034;1319;3026967;-65
2022/07/25 00:12:27;;;;;;;6.70;4.00;;;;;;;24.39;51.25;98885.88;25051;1314;3070871;-63
2022/07/25 00:15:03;;;;;;;5.20;3.50;;;;;;;24.41;51.05;98887.54;25037;1315;3051464;-62
2022/07/25 00:17:33;;;;;;;9.40;3.80;;;;;;;24.45;50.95;98883.64;25052;1315;3026475;-62
2022/07/25 00:20:06;;;;;;;8.10;4.00;;;;;;;24.42;51.18;98882.83;25038;1317;3027245;-60
2022/07/25 00:22:35;;;;;;;9.10;3.60;;;;;;;24.39;51.32;98884.27;25077;1315;3026190;-62
2022/07/25 00:25:05;;;;;;;7.90;3.40;;;;;;;24.43;51.14;98881.23;25074;1315;3026825;-62
2022/07/25 00:27:34;;;;;;;6.50;3.30;;;;;;;24.44;50.91;98886.48;25085;1314;3055106;-63
2022/07/25 00:30:05;;;;;;;6.00;3.10;;;;;;;24.45;50.82;98886.48;25050;1315;3028750;-61
2022/07/25 00:32:34;;;;;;;8.60;4.10;;;;;;;24.45;51.08;98890.29;25052;1315;3027663;-61
2022/07/25 00:35:04;;;;;;;7.70;4.50;;;;;;;24.47;51.13;98890.38;25057;1314;3026755;-65
2022/07/25 00:37:33;;;;;;;6.30;4.40;;;;;;;24.45;51.31;98887.18;25031;1314;3056966;-61
2022/07/25 00:40:03;;;;;;;10.70;4.40;;;;;;;24.33;51.88;98887.65;25245;1319;3026524;-61
2022/07/25 00:42:32;;;;;;;9.50;4.70;;;;;;;24.29;51.98;98888.74;25197;1314;3027334;-63
2022/07/25 00:45:01;;;;;;;8.70;4.80;;;;;;;24.27;52.33;98886.82;25025;1321;3026278;-63
2022/07/25 00:47:30;;;;;;;10.90;5.10;;;;;;;24.19;52.43;98889.09;25013;1321;3052011;-62
2022/07/25 00:50:00;;;;;;;11.00;5.30;;;;;;;24.11;52.65;98884.07;25031;1314;3026667;-61
2022/07/25 00:52:31;;;;;;;10.40;5.20;;;;;;;24.03;53.45;98885.09;25106;1314;3026769;-63
2022/07/25 00:55:00;;;;;;;8.90;5.90;;;;;;;23.92;53.78;98886.73;25014;1314;3026634;-63
2022/07/25 00:57:29;;;;;;;10.30;5.30;;;;;;;23.74;54.38;98882.80;25087;1317;3052513;-63
2022/07/25 00:59:58;;;;;;;8.60;5.20;;;;;;;23.67;54.63;98888.59;25011;1314;3026701;-62
2022/07/25 01:02:27;;;;;;;6.90;4.70;;;;;;;23.47;55.27;98883.57;25050;1314;3052291;-63
2022/07/25 01:04:57;;;;;;;7.00;4.50;;;;;;;23.32;55.53;98882.80;25056;1315;3027004;-63
2022/07/25 01:07:27;;;;;;;11.60;5.70;;;;;;;23.39;55.11;98881.92;25002;1314;3057128;-64
2022/07/25 01:09:56;;;;;;;9.80;5.50;;;;;;;23.32;55.56;98881.73;25035;1315;3026771;-61
2022/07/25 01:12:26;;;;;;;7.60;4.90;;;;;;;23.26;55.88;98882.40;25035;1314;3051746;-61
2022/07/25 01:14:56;;;;;;;9.80;4.90;;;;;;;23.17;55.93;98881.52;25073;1315;3029528;-61
2022/07/25 01:17:25;;;;;;;9.70;5.80;;;;;;;23.15;55.84;98878.78;25121;1315;3026550;-61
2022/07/25 01:19:55;;;;;;;8.70;5.50;;;;;;;23.17;55.77;98880.98;25025;1314;3026272;-62
2022/07/25 01:22:24;;;;;;;5.80;4.70;;;;;;;23.13;55.93;98880.36;25073;1314;3056703;-62
2022/07/25 01:24:53;;;;;;;9.30;4.70;;;;;;;23.16;55.57;98875.73;25026;1315;3026536;-60
2022/07/25 01:27:21;;;;;;;9.70;4.90;;;;;;;23.21;55.46;98875.00;25050;1314;3054988;-60
2022/07/25 01:29:51;;;;;;;7.10;4.60;;;;;;;23.25;55.09;98872.05;25076;1314;3026572;-61
2022/07/25 01:32:20;;;;;;;10.40;6.10;;;;;;;23.27;54.74;98865.47;25109;1314;3054954;-62
2022/07/25 01:34:49;;;;;;;11.30;5.10;;;;;;;23.35;54.57;98867.16;25160;1314;3026433;-61
2022/07/25 01:37:18;;;;;;;8.00;5.10;;;;;;;23.43;54.14;98866.27;25057;1314;3051157;-64
2022/07/25 01:39:47;;;;;;;11.80;6.90;;;;;;;23.44;54.18;98862.80;25076;1315;3028446;-61
2022/07/25 01:42:16;;;;;;;12.30;7.70;;;;;;;23.48;54.14;98862.55;25079;1315;3069526;-62
2022/07/25 01:44:45;;;;;;;8.50;5.80;;;;;;;23.50;54.01;98857.90;25051;1315;3026418;-62
2022/07/25 01:47:15;;;;;;;9.80;5.50;;;;;;;23.51;53.93;98856.94;25073;1315;3053416;-58
2022/07/25 01:49:45;;;;;;;7.80;4.80;;;;;;;23.54;53.81;98850.69;25006;1315;3026844;-62
2022/07/25 01:52:14;;;;;;;9.20;4.60;;;;;;;23.54;53.72;98852.91;25074;1315;3026583;-59
2022/07/25 01:54:43;;;;;;;10.50;7.90;;;;;;;23.57;53.76;98854.80;25016;1314;3051705;-61
2022/07/25 01:57:12;;;;;;;10.50;6.40;;;;;;;23.54;53.94;98851.64;25036;1315;3026940;-60
2022/07/25 01:59:41;;;;;;;11.30;5.60;;;;;;;23.56;53.87;98851.90;25092;1314;3026793;-61
2022/07/25 02:02:11;;;;;;;12.10;6.40;;;;;;;23.58;53.74;98853.04;25084;1314;3051278;-62
2022/07/25 02:04:42;;;;;;;12.00;6.00;;;;;;;23.63;53.36;98854.23;25031;1314;3026461;-60
2022/07/25 02:07:11;;;;;;;13.50;6.10;;;;;;;23.71;53.11;98862.22;25070;1315;3026780;-66
2022/07/25 02:09:40;;;;;;;6.60;5.60;;;;;;;23.71;53.30;98869.23;25051;1315;3053325;-61
2022/07/25 02:12:13;;;;;;;13.10;5.30;;;;;;;23.59;53.74;98879.96;25057;1315;3027435;-62
2022/07/25 02:14:43;;;;;;;9.20;6.10;;;;;;;23.50;54.26;98882.57;25049;1315;3026568;-62
2022/07/25 02:17:12;;;;;;;14.70;5.90;;;;;;;23.33;55.08;98884.55;25025;1315;3026975;-61
2022/07/25 02:19:43;;;;;;;12.20;5.70;;;;;;;23.31;55.21;98866.49;25052;1315;3070532;-63
2022/07/25 02:22:12;;;;;;;11.10;5.20;;;;;;;23.34;54.95;98865.80;25025;1314;3026943;-62
2022/07/25 02:24:43;;;;;;;11.70;5.50;;;;;;;23.32;54.91;98873.81;25013;1319;3027163;-62
2022/07/25 02:27:12;;;;;;;14.00;6.10;;;;;;;23.26;55.23;98866.17;25064;1314;3027050;-62
2022/07/25 02:29:41;;;;;;;15.30;6.30;;;;;;;23.27;54.98;98862.80;25025;1314;3050111;-61
2022/07/25 02:32:10;;;;;;;12.90;5.50;;;;;;;23.35;54.74;98867.70;25067;1315;3026478;-64
2022/07/25 02:34:39;;;;;;;12.10;5.40;;;;;;;23.37;54.58;98867.27;24993;1316;3070776;-62
2022/07/25 02:37:08;;;;;;;19.20;7.30;;;;;;;23.36;54.87;98867.09;25079;1314;3026688;-63
2022/07/25 02:39:37;;;;;;;19.70;7.40;;;;;;;23.28;55.08;98870.15;25020;1315;3053027;-63
2022/07/25 02:42:06;;;;;;;24.30;8.40;;;;;;;23.25;55.43;98868.59;25014;1315;3026450;-62
2022/07/25 02:44:37;;;;;;;26.90;10.90;;;;;;;23.19;55.71;98867.33;25056;1314;3026446;-63
2022/07/25 02:47:06;;;;;;;25.00;11.00;;;;;;;23.16;55.46;98864.15;25033;1314;3026791;-62
2022/07/25 02:49:35;;;;;;;28.50;11.40;;;;;;;23.13;55.50;98863.58;25083;1314;3070973;-61
2022/07/25 02:52:04;;;;;;;27.30;9.70;;;;;;;23.06;56.15;98857.44;25045;1314;3026296;-62
2022/07/25 02:54:33;;;;;;;24.30;9.70;;;;;;;22.98;56.98;98852.42;25076;1315;3051547;-63
2022/07/25 02:57:02;;;;;;;30.30;9.90;;;;;;;22.92;57.39;98851.49;25019;1315;3026639;-62
2022/07/25 02:59:32;;;;;;;23.00;8.60;;;;;;;22.88;57.95;98850.55;25021;1315;3052314;-63
2022/07/25 03:02:01;;;;;;;21.80;8.60;;;;;;;22.78;58.64;98852.73;25075;1315;3026099;-63
2022/07/25 03:04:34;;;;;;;22.60;8.50;;;;;;;22.78;58.92;98852.84;25012;1315;3051936;-61
2022/07/25 03:07:03;;;;;;;22.10;7.60;;;;;;;22.74;59.33;98853.55;25056;1315;3026770;-61
2022/07/25 03:09:33;;;;;;;16.70;6.70;;;;;;;22.66;59.93;98856.14;25006;1314;3058569;-61
2022/07/25 03:12:03;;;;;;;18.90;7.90;;;;;;;22.58;60.44;98859.42;24975;1314;3028001;-62
2022/07/25 03:14:33;;;;;;;16.50;7.10;;;;;;;22.56;60.67;98860.72;25041;1315;3051699;-62
2022/07/25 03:17:02;;;;;;;15.70;6.30;;;;;;;22.47;61.37;98861.80;25005;1315;3026359;-60
2022/07/25 03:19:34;;;;;;;16.60;6.00;;;;;;;22.36;61.75;98866.98;25008;1315;3031318;-64
2022/07/25 03:22:03;;;;;;;11.00;5.90;;;;;;;22.35;62.03;98863.23;25068;1315;3027153;-62
2022/07/25 03:24:32;;;;;;;15.10;5.40;;;;;;;22.28;62.16;98860.48;25031;1314;3058604;-61
2022/07/25 03:27:02;;;;;;;11.30;5.80;;;;;;;22.25;62.36;98861.80;25098;1315;3026648;-61
2022/07/25 03:29:31;;;;;;;13.40;5.50;;;;;;;22.26;62.18;98858.52;25021;1315;3026896;-61
2022/07/25 03:32:00;;;;;;;11.60;5.20;;;;;;;22.27;62.30;98858.70;24999;1315;3026486;-62
2022/07/25 03:34:30;;;;;;;8.70;4.80;;;;;;;22.21;62.24;98856.23;25042;1314;3026679;-61
2022/07/25 03:36:59;;;;;;;14.00;6.20;;;;;;;22.18;62.42;98857.90;25093;1314;3026227;-61
2022/07/25 03:39:28;;;;;;;9.60;4.80;;;;;;;22.19;62.38;98855.25;25085;1315;3053788;-63
2022/07/25 03:41:57;;;;;;;12.50;4.60;;;;;;;22.17;62.55;98856.11;25063;1314;3026136;-62
2022/07/25 03:44:26;;;;;;;12.20;5.40;;;;;;;22.19;62.41;98857.98;25051;1315;3055249;-61
2022/07/25 03:46:56;;;;;;;12.70;5.10;;;;;;;22.08;63.00;98857.26;25102;1311;3028332;-61
2022/07/25 03:49:25;;;;;;;10.10;5.20;;;;;;;22.04;63.37;98854.52;25068;1311;3027903;-63
2022/07/25 03:51:54;;;;;;;11.80;5.60;;;;;;;22.05;63.45;98852.15;25129;1311;3052207;-61
2022/07/25 03:54:23;;;;;;;9.20;4.90;;;;;;;21.99;63.53;98856.52;25061;1311;3026409;-64
2022/07/25 03:56:52;;;;;;;10.00;5.50;;;;;;;22.01;63.40;98852.38;25088;1311;3051908;-62
2022/07/25 03:59:21;;;;;;;16.40;6.20;;;;;;;21.98;63.83;98855.54;25078;1311;3026475;-63
2022/07/25 04:01:50;;;;;;;13.50;4.20;;;;;;;21.95;64.19;98849.33;25108;1311;3058341;-63
2022/07/25 04:04:19;;;;;;;8.10;4.90;;;;;;;22.58;62.77;98848.84;25097;1311;3028268;-59
2022/07/25 04:06:48;;;;;;;12.90;5.30;;;;;;;22.93;61.27;98849.11;25105;1311;3054351;-61
2022/07/25 04:09:17;;;;;;;13.70;5.10;;;;;;;22.97;60.89;98852.14;25118;1311;3027950;-64
2022/07/25 04:11:46;;;;;;;15.60;5.80;;;;;;;22.88;60.96;98853.30;25133;1311;3054030;-62
2022/07/25 04:14:15;;;;;;;12.70;5.70;;;;;;;22.68;61.89;98862.61;25127;1311;3027281;-63
2022/07/25 04:16:45;;;;;;;13.40;6.20;;;;;;;22.50;62.82;98858.35;25122;1311;3028599;-64
2022/07/25 04:19:15;;;;;;;11.20;5.90;;;;;;;22.35;63.28;98862.98;25034;1311;3027982;-62
2022/07/25 04:21:44;;;;;;;9.90;5.30;;;;;;;22.28;63.55;98863.67;25122;1311;3028273;-63
2022/07/25 04:24:13;;;;;;;10.70;6.00;;;;;;;22.10;64.26;98861.48;25070;1311;3058325;-63
2022/07/25 04:26:42;;;;;;;15.60;6.00;;;;;;;21.97;65.05;98858.41;25059;1311;3026507;-63
2022/07/25 04:29:11;;;;;;;16.40;5.50;;;;;;;21.87;65.38;98859.23;25106;1311;3053771;-61
2022/07/25 04:31:40;;;;;;;10.80;4.60;;;;;;;21.88;65.47;98858.39;25045;1311;3026695;-61
2022/07/25 04:34:09;;;;;;;13.00;5.30;;;;;;;22.29;64.07;98857.62;25124;1311;3026378;-62
2022/07/25 04:36:38;;;;;;;15.70;6.10;;;;;;;22.49;63.63;98854.58;25071;1311;3054609;-61
2022/07/25 04:39:08;;;;;;;12.50;5.50;;;;;;;22.43;63.41;98856.75;25103;1311;3026787;-60
2022/07/25 04:41:37;;;;;;;13.00;5.90;;;;;;;22.35;63.58;98853.21;25049;1311;3026603;-63
2022/07/25 04:44:06;;;;;;;9.20;5.90;;;;;;;22.21;63.98;98856.96;25100;1311;3054395;-64
2022/07/25 04:46:36;;;;;;;12.70;6.50;;;;;;;22.07;64.70;98854.93;25115;1311;3026353;-64
2022/07/25 04:49:05;;;;;;;10.30;5.50;;;;;;;22.00;65.00;98850.02;25092;1311;3026906;-63
2022/07/25 04:51:34;;;;;;;13.20;5.90;;;;;;;21.88;65.42;98847.69;25076;1311;3026546;-62
2022/07/25 04:54:04;;;;;;;10.50;6.10;;;;;;;21.79;65.80;98844.05;25103;1311;3056462;-63
2022/07/25 04:56:34;;;;;;;9.00;5.60;;;;;;;21.75;66.05;98849.73;25080;1311;3027382;-64
2022/07/25 04:59:03;;;;;;;8.20;4.60;;;;;;;21.76;66.12;98843.39;25105;1311;3026850;-63
2022/07/25 05:01:32;;;;;;;11.20;5.60;;;;;;;22.33;64.96;98844.54;25120;1311;3026762;-63
2022/07/25 05:04:02;;;;;;;11.30;5.70;;;;;;;22.61;63.78;98847.45;25086;1311;3053108;-61
2022/07/25 05:06:32;;;;;;;11.40;5.80;;;;;;;22.65;63.65;98843.69;25107;1311;3026481;-65
2022/07/25 05:09:00;;;;;;;9.60;6.00;;;;;;;22.53;63.53;98840.31;25049;1311;3058566;-63
2022/07/25 05:11:30;;;;;;;11.70;6.60;;;;;;;22.44;63.99;98846.27;25099;1311;3026350;-63
2022/07/25 05:14:03;;;;;;;9.00;6.40;;;;;;;22.15;65.06;98842.67;25063;1311;3054483;-62
2022/07/25 05:16:32;;;;;;;12.40;7.20;;;;;;;21.96;65.64;98841.94;25117;1311;3027083;-63
2022/07/25 05:19:01;;;;;;;16.00;7.20;;;;;;;21.80;66.45;98843.65;25061;1311;3054716;-63
2022/07/25 05:21:31;;;;;;;11.20;6.30;;;;;;;21.79;66.62;98840.23;25073;1311;3026920;-63
2022/07/25 05:24:00;;;;;;;13.10;6.60;;;;;;;21.66;67.16;98847.77;25080;1311;3027082;-63
2022/07/25 05:26:29;;;;;;;11.70;4.90;;;;;;;21.69;67.20;98845.78;25122;1311;3026205;-63
2022/07/25 05:28:58;;;;;;;9.40;5.30;;;;;;;22.41;65.05;98846.55;25060;1311;3052294;-63
2022/07/25 05:31:28;;;;;;;12.60;6.00;;;;;;;22.85;63.54;98839.02;25099;1311;3027080;-62
2022/07/25 05:33:57;;;;;;;14.50;7.00;;;;;;;22.80;63.42;98837.02;25080;1311;3028321;-62
2022/07/25 05:36:26;;;;;;;12.50;6.60;;;;;;;22.77;63.25;98834.64;25130;1311;3054596;-62
2022/07/25 05:38:55;;;;;;;13.40;6.60;;;;;;;22.74;63.61;98839.65;25069;1311;3027306;-62
2022/07/25 05:41:24;;;;;;;17.80;7.20;;;;;;;22.55;64.09;98844.04;25062;1311;3026712;-61
2022/07/25 05:43:54;;;;;;;15.80;7.40;;;;;;;22.42;64.57;98839.38;25114;1311;3055578;-62
2022/07/25 05:46:23;;;;;;;14.30;7.60;;;;;;;22.33;64.76;98840.97;25074;1311;3026503;-62
2022/07/25 05:48:52;;;;;;;16.20;7.50;;;;;;;22.33;64.87;98837.39;25136;1311;3053879;-62
2022/07/25 05:51:21;;;;;;;17.10;7.70;;;;;;;22.32;65.21;98835.67;25058;1311;3026869;-62
2022/07/25 05:53:50;;;;;;;12.30;5.50;;;;;;;22.34;65.01;98832.94;25053;1311;3048679;-63
2022/07/25 05:56:20;;;;;;;11.50;6.30;;;;;;;22.93;63.92;98831.23;25086;1311;3026872;-64
2022/07/25 05:58:49;;;;;;;14.30;6.70;;;;;;;23.55;62.00;98826.98;25114;1311;3026241;-63
2022/07/25 06:01:18;;;;;;;16.60;6.80;;;;;;;23.70;61.20;98826.70;25065;1311;3050366;-63
2022/07/25 06:03:48;;;;;;;11.30;6.70;;;;;;;23.65;60.97;98827.68;24749;1311;3026586;-64
2022/07/25 06:06:17;;;;;;;13.30;7.10;;;;;;;23.51;61.23;98822.61;25082;1311;3027795;-61
2022/07/25 06:08:47;;;;;;;15.00;6.90;;;;;;;23.36;61.47;98818.07;25108;1311;3028506;-61
2022/07/25 06:11:16;;;;;;;11.40;7.40;;;;;;;23.23;61.83;98827.62;25055;1311;3026646;-63
2022/07/25 06:13:46;;;;;;;11.20;7.20;;;;;;;23.09;62.11;98822.66;25097;1314;3026400;-64
2022/07/25 06:16:16;;;;;;;11.50;7.40;;;;;;;23.04;61.98;98821.88;25141;1311;3027119;-62
2022/07/25 06:18:47;;;;;;;16.50;7.80;;;;;;;22.91;62.69;98817.33;25063;1311;3028689;-62
2022/07/25 06:21:16;;;;;;;15.20;8.70;;;;;;;22.82;63.15;98814.34;25149;1311;3026838;-64
2022/07/25 06:23:45;;;;;;;13.60;8.10;;;;;;;22.77;63.42;98816.42;25124;1311;3053729;-62
2022/07/25 06:26:16;;;;;;;14.00;7.90;;;;;;;22.66;64.31;98810.56;25123;1311;3028394;-62
2022/07/25 06:28:45;;;;;;;9.70;6.00;;;;;;;22.63;65.31;98805.25;25115;1311;3026453;-61
2022/07/25 06:31:17;;;;;;;8.30;6.80;;;;;;;23.22;64.16;98804.98;25096;1311;3027648;-63
2022/07/25 06:33:46;;;;;;;13.00;6.50;;;;;;;23.73;62.44;98799.41;25140;1311;3026103;-63
2022/07/25 06:36:15;;;;;;;12.20;7.10;;;;;;;23.80;61.99;98797.92;25086;1311;3048519;-62
2022/07/25 06:38:44;;;;;;;20.20;9.80;;;;;;;23.66;62.58;98799.35;25092;1311;3026195;-66
2022/07/25 06:41:14;;;;;;;17.50;8.80;;;;;;;23.51;63.27;98798.65;25036;1311;3071064;-65
2022/07/25 06:43:43;;;;;;;12.60;7.10;;;;;;;23.34;63.26;98794.35;25149;1315;3026845;-65
2022/07/25 06:46:12;;;;;;;13.80;7.80;;;;;;;23.25;63.54;98792.45;25064;1314;3026904;-63
2022/07/25 06:48:42;;;;;;;14.90;8.60;;;;;;;23.14;63.62;98799.34;25104;1313;3026365;-63
2022/07/25 06:51:11;;;;;;;12.80;8.40;;;;;;;23.05;63.61;98799.59;25035;1314;3048480;-63
2022/07/25 06:53:40;;;;;;;21.00;8.50;;;;;;;23.00;63.74;98800.34;25128;1314;3026941;-64
2022/07/25 06:56:10;;;;;;;20.30;11.60;;;;;;;22.96;64.07;98804.56;25086;1314;3070518;-63
2022/07/25 06:58:39;;;;;;;16.20;8.90;;;;;;;22.86;64.28;98808.41;25091;1314;3026912;-63
2022/07/25 07:01:08;;;;;;;12.50;8.10;;;;;;;22.84;64.06;98811.07;25070;1314;3026467;-63
2022/07/25 07:03:38;;;;;;;16.70;8.30;;;;;;;22.83;63.39;98812.59;25104;1314;3070273;-62
2022/07/25 07:06:10;;;;;;;18.20;9.20;;;;;;;22.82;63.76;98807.59;25112;1314;3026663;-65
2022/07/25 07:08:41;;;;;;;17.00;7.00;;;;;;;22.79;64.86;98810.23;25087;1315;3052114;-62
2022/07/25 07:11:14;;;;;;;18.90;9.20;;;;;;;23.36;63.58;98804.91;25130;1315;3026262;-62
2022/07/25 07:13:57;;;;;;;18.50;12.70;;;;;;;23.90;62.10;98800.05;25037;1314;3058743;-65
2022/07/25 07:16:26;;;;;;;19.90;11.80;;;;;;;23.89;62.29;98794.46;25122;1314;3026215;-63
2022/07/25 07:18:55;;;;;;;23.50;9.90;;;;;;;23.79;62.99;98800.41;25053;1313;3054159;-64
2022/07/25 07:21:24;;;;;;;18.20;10.30;;;;;;;23.59;63.48;98803.42;25063;1314;3026653;-65
2022/07/25 07:23:53;;;;;;;14.50;10.30;;;;;;;23.42;63.30;98809.63;25091;1314;3026904;-63
2022/07/25 07:26:23;;;;;;;13.30;9.00;;;;;;;23.21;63.08;98812.80;25051;1314;3053855;-64
2022/07/25 07:28:53;;;;;;;17.10;9.00;;;;;;;23.16;63.19;98810.52;25033;1314;3026993;-62
2022/07/25 07:31:23;;;;;;;14.20;8.60;;;;;;;23.12;62.94;98808.23;25058;1314;3026775;-63
2022/07/25 07:33:52;;;;;;;16.50;8.70;;;;;;;23.02;63.39;98808.30;25111;1314;3026196;-62
2022/07/25 07:36:21;;;;;;;19.80;9.20;;;;;;;23.05;63.26;98808.99;25058;1314;3057973;-63
2022/07/25 07:38:51;;;;;;;15.20;8.90;;;;;;;23.17;63.13;98803.56;25064;1314;3026281;-63
2022/07/25 07:41:20;;;;;;;12.00;7.40;;;;;;;23.24;62.35;98806.24;25039;1314;3026850;-65
2022/07/25 07:43:49;;;;;;;15.50;8.60;;;;;;;23.22;62.13;98810.19;25148;1313;3026385;-65
2022/07/25 07:46:18;;;;;;;16.70;11.10;;;;;;;23.12;62.27;98815.01;25088;1314;3047466;-63
2022/07/25 07:48:47;;;;;;;17.00;11.40;;;;;;;22.96;64.05;98812.64;25167;1314;3026511;-61
2022/07/25 07:51:16;;;;;;;20.50;9.60;;;;;;;23.07;64.03;98809.39;25218;1314;3059088;-64
2022/07/25 07:56:34;;;;;;;13.60;10.20;;;;;;;24.30;60.44;98800.88;25098;1314;3055382;-64
2022/07/25 07:59:03;;;;;;;21.40;11.10;;;;;;;24.51;60.12;98803.20;25042;1314;3026667;-65
2022/07/25 08:01:33;;;;;;;15.40;9.40;;;;;;;24.35;60.37;98805.31;25041;1314;3055188;-64
2022/07/25 08:04:03;;;;;;;14.50;9.90;;;;;;;24.20;60.95;98800.44;25081;1314;3026821;-65
2022/07/25 08:06:32;;;;;;;15.50;10.00;;;;;;;24.04;61.44;98806.17;25113;1314;3026978;-65
2022/07/25 08:09:04;;;;;;;13.40;10.00;;;;;;;23.74;62.24;98811.92;25086;1314;3054166;-64
2022/07/25 08:11:33;;;;;;;14.70;8.60;;;;;;;23.54;63.12;98808.61;25087;1314;3026986;-64
2022/07/25 08:14:04;;;;;;;13.10;9.00;;;;;;;23.36;63.52;98810.64;25057;1314;3051459;-64
2022/07/25 08:16:33;;;;;;;14.80;9.50;;;;;;;23.00;64.81;98818.26;25124;1314;3026769;-62
2022/07/25 08:19:02;;;;;;;11.80;9.30;;;;;;;22.93;65.18;98820.39;25072;1314;3026339;-61
2022/07/25 08:21:31;;;;;;;10.60;9.40;;;;;;;22.87;65.47;98820.49;25097;1314;3048909;-63
2022/07/25 08:24:01;;;;;;;13.30;6.50;;;;;;;23.00;65.33;98811.21;25093;1314;3028350;-62
2022/07/25 08:26:32;;;;;;;10.40;7.20;;;;;;;23.81;63.47;98814.80;25026;1314;3028743;-64
2022/07/25 08:29:02;;;;;;;10.60;7.00;;;;;;;24.20;61.75;98816.35;25133;1314;3025936;-62
2022/07/25 08:31:33;;;;;;;11.80;8.10;;;;;;;24.26;61.33;98816.30;25097;1314;3026595;-63
2022/07/25 08:34:02;;;;;;;13.90;8.90;;;;;;;24.08;61.89;98820.48;25079;1314;3026368;-65
2022/07/25 08:36:32;;;;;;;16.00;9.30;;;;;;;23.71;61.91;98819.98;25109;1313;3026605;-64
2022/07/25 08:39:03;;;;;;;12.70;7.60;;;;;;;23.54;62.60;98823.09;25140;1314;3029176;-64
2022/07/25 08:41:33;;;;;;;13.00;8.00;;;;;;;23.35;62.27;98822.39;25045;1314;3026417;-64
2022/07/25 08:44:02;;;;;;;9.60;8.00;;;;;;;23.30;62.75;98818.87;25092;1314;3026251;-64
2022/07/25 08:46:33;;;;;;;13.50;8.70;;;;;;;23.24;63.17;98821.88;25072;1313;3027067;-63
2022/07/25 08:49:02;;;;;;;11.20;9.10;;;;;;;23.22;63.90;98824.48;25142;1313;3026111;-63
2022/07/25 08:51:31;;;;;;;10.60;8.50;;;;;;;23.28;63.76;98819.06;25095;1311;3026438;-65
2022/07/25 08:54:00;;;;;;;13.80;8.90;;;;;;;23.33;63.98;98816.14;25111;1311;3026477;-63
2022/07/25 08:56:29;;;;;;;16.40;6.10;;;;;;;23.46;63.71;98816.38;25224;1311;3057870;-63
2022/07/25 08:58:58;;;;;;;14.10;6.70;;;;;;;24.13;61.97;98819.50;25084;1311;3026351;-63
2022/07/25 09:01:28;;;;;;;11.00;6.90;;;;;;;24.66;59.47;98815.97;25207;1311;3055252;-64
2022/07/25 09:03:57;;;;;;;9.40;6.70;;;;;;;24.53;59.03;98819.62;25418;1311;3026797;-64
2022/07/25 09:06:26;;;;;;;11.70;6.60;;;;;;;24.44;59.28;98815.81;25094;1312;3026970;-63
2022/07/25 09:08:59;;;;;;;13.90;7.20;;;;;;;24.45;59.40;98811.56;25190;1311;3052204;-60
2022/07/25 09:11:34;;;;;;;8.90;6.90;;;;;;;24.31;60.13;98807.57;25127;1311;3026518;-63
2022/07/25 09:14:05;;;;;;;10.50;7.40;;;;;;;24.36;60.13;98807.85;25092;1311;3048851;-63
2022/07/25 09:16:36;;;;;;;7.40;6.60;;;;;;;24.29;60.37;98803.89;25118;1311;3027936;-62
2022/07/25 09:19:16;;;;;;;10.40;6.50;;;;;;;24.24;60.55;98808.61;25078;1311;3027199;-63
2022/07/25 09:21:56;;;;;;;11.40;7.00;;;;;;;24.31;60.38;98807.61;25029;1311;3071359;-64
2022/07/25 09:24:25;;;;;;;9.70;7.00;;;;;;;24.31;60.26;98809.05;25100;1313;3052103;-63
2022/07/25 09:26:59;;;;;;;13.40;7.00;;;;;;;24.36;60.45;98810.20;25172;1312;3026577;-63
2022/07/25 09:29:32;;;;;;;13.00;6.50;;;;;;;24.44;60.31;98807.17;25109;1312;3072586;-62
2022/07/25 09:32:01;;;;;;;8.80;5.90;;;;;;;24.38;60.33;98809.42;25112;1311;3026650;-61
2022/07/25 09:34:38;;;;;;;9.70;5.80;;;;;;;24.46;59.55;98801.65;25105;1311;3026831;-62
2022/07/25 09:37:11;;;;;;;8.40;5.40;;;;;;;24.47;59.34;98801.23;25113;1311;3053473;-63
2022/07/25 09:39:42;;;;;;;12.90;5.80;;;;;;;24.47;58.29;98804.27;25082;1312;3026239;-65
2022/07/25 09:42:22;;;;;;;8.20;5.80;;;;;;;24.49;58.38;98804.90;25088;1311;3026575;-65
2022/07/25 09:44:57;;;;;;;9.80;6.10;;;;;;;24.27;59.28;98803.25;25120;1311;3055882;-62
2022/07/25 09:47:26;;;;;;;6.90;5.80;;;;;;;24.14;59.97;98802.60;25076;1312;3054256;-64
2022/07/25 09:49:55;;;;;;;8.60;5.90;;;;;;;24.33;59.83;98796.94;25122;1311;3026840;-62
2022/07/25 09:52:25;;;;;;;7.80;5.90;;;;;;;24.47;59.50;98797.07;25075;1311;3054611;-64
2022/07/25 09:54:54;;;;;;;7.60;5.50;;;;;;;24.62;59.12;98787.45;25080;1311;3026420;-64
2022/07/25 09:57:24;;;;;;;10.50;6.10;;;;;;;24.79;58.61;98788.02;25108;1311;3050074;-63
2022/07/25 09:59:54;;;;;;;11.80;6.40;;;;;;;25.05;58.18;98783.83;25225;1311;3026815;-66
2022/07/25 10:02:44;;;;;;;7.30;5.90;;;;;;;25.29;57.70;98779.27;25153;1312;3026736;-62
2022/07/25 10:05:22;;;;;;;7.30;5.50;;;;;;;25.58;56.48;98779.39;25113;1311;3052109;-62
2022/07/25 10:07:52;;;;;;;6.80;5.50;;;;;;;25.70;55.80;98777.56;25090;1311;3055702;-64
2022/07/25 10:10:26;;;;;;;7.10;4.20;;;;;;;25.77;54.30;98777.67;25042;1311;3026079;-63
2022/07/25 10:13:13;;;;;;;8.70;5.10;;;;;;;25.60;54.64;98777.48;25135;1311;3026902;-65
2022/07/25 10:15:44;;;;;;;5.50;4.80;;;;;;;25.63;54.16;98779.63;25068;1311;3048837;-61
2022/07/25 10:18:14;;;;;;;8.80;5.10;;;;;;;25.85;54.08;98773.33;25090;1311;3026538;-64
2022/07/25 10:20:44;;;;;;;5.90;4.50;;;;;;;25.66;54.97;98775.29;25094;1310;3026261;-63
2022/07/25 10:23:31;;;;;;;5.20;4.60;;;;;;;25.37;56.52;98778.39;25084;1311;3027473;-63
2022/07/25 10:26:12;;;;;;;7.40;4.70;;;;;;;25.29;56.49;98774.94;25112;1313;3053742;-64
2022/07/25 10:28:49;;;;;;;6.40;4.50;;;;;;;25.47;56.42;98779.51;25153;1311;3055564;-61
2022/07/25 10:31:22;;;;;;;6.30;4.40;;;;;;;25.61;56.12;98775.33;25085;1311;3051078;-64
2022/07/25 10:33:58;;;;;;;7.90;4.50;;;;;;;25.59;56.01;98772.07;25099;1311;3029791;-62
2022/07/25 10:36:41;;;;;;;5.10;4.30;;;;;;;25.62;56.15;98768.46;25174;1313;3048113;-63
2022/07/25 10:39:11;;;;;;;5.40;3.90;;;;;;;25.60;55.47;98771.52;25099;1311;3054614;-64
2022/07/25 10:41:51;;;;;;;9.70;5.90;;;;;;;25.55;55.57;98770.78;25180;1311;3026357;-62
2022/07/25 10:44:21;;;;;;;10.70;5.60;;;;;;;25.30;56.16;98770.19;25155;1311;3057414;-63
2022/07/25 10:47:05;;;;;;;11.50;5.00;;;;;;;25.10;56.54;98763.09;25103;1311;3026639;-63
2022/07/25 10:49:36;;;;;;;8.30;4.70;;;;;;;25.00;57.26;98764.51;25182;1311;3054830;-63
2022/07/25 10:52:05;;;;;;;6.30;3.70;;;;;;;24.95;57.21;98766.36;25216;1311;3026608;-62
2022/07/25 10:54:36;;;;;;;5.80;3.50;;;;;;;25.19;56.86;98761.56;25103;1311;3028166;-64
2022/07/25 10:57:13;;;;;;;4.30;3.50;;;;;;;25.56;55.80;98757.79;25131;1311;3052350;-63
2022/07/25 10:59:42;;;;;;;6.20;4.10;;;;;;;25.96;54.81;98752.11;25113;1311;3050254;-63
2022/07/25 11:02:17;;;;;;;7.70;3.60;;;;;;;26.07;54.03;98752.61;25161;1311;3026904;-62
2022/07/25 11:05:00;;;;;;;7.80;4.10;;;;;;;26.17;54.06;98748.23;25107;1311;3055986;-64
2022/07/25 11:07:34;;;;;;;7.60;3.80;;;;;;;26.14;53.80;98751.80;25153;1312;3053592;-63
2022/07/25 11:10:04;;;;;;;4.40;3.90;;;;;;;26.13;53.71;98748.83;25114;1311;3068967;-62
2022/07/25 11:12:43;;;;;;;5.60;3.50;;;;;;;26.31;53.27;98740.39;25157;1312;3050070;-66
2022/07/25 11:15:13;;;;;;;6.50;3.50;;;;;;;26.48;52.01;98736.35;25141;1312;3052587;-63
2022/07/25 11:17:50;;;;;;;4.80;3.50;;;;;;;26.52;51.00;98737.85;25192;1312;3026315;-63
2022/07/25 11:20:19;;;;;;;;;;;;;;;26.46;50.17;98742.65;25150;1312;3056915;-65
2022/07/25 11:22:52;;;;;;;4.90;3.20;;;;;;;26.16;50.42;98742.52;25136;1312;3026248;-65
2022/07/25 11:25:22;;;;;;;10.10;3.50;;;;;;;26.43;50.14;98738.44;25185;1312;3052690;-62
2022/07/25 11:27:55;;;;;;;6.30;3.30;;;;;;;26.87;49.35;98734.49;25151;1312;3026773;-63
2022/07/25 11:30:26;;;;;;;;;;;;;;;26.96;48.46;98736.57;25122;1311;3052176;-63